createdAt,value
2017-12-04T00:00:41.870Z,5.02
2017-12-04T00:01:51.930Z,5.08
2017-12-04T00:03:01.997Z,5.02
2017-12-04T00:04:11.533Z,5.02
2017-12-04T00:05:21.055Z,4.97
2017-12-04T00:06:31.112Z,4.95
2017-12-04T00:07:40.633Z,5.03
2017-12-04T00:08:50.682Z,5.02
2017-12-04T00:10:00.231Z,5.05
2017-12-04T00:11:10.297Z,5
2017-12-04T00:12:20.104Z,5.03
2017-12-04T00:13:30.204Z,5.1
2017-12-04T00:14:41.408Z,5.08
2017-12-04T00:15:51.180Z,5.02
2017-12-04T00:17:00.966Z,5.02
2017-12-04T00:18:10.749Z,5
2017-12-04T00:19:20.543Z,5.06
2017-12-04T00:20:30.338Z,5
2017-12-04T00:21:39.863Z,4.98
2017-12-04T00:22:49.911Z,5.02
2017-12-04T00:23:59.714Z,5.03
2017-12-04T00:25:09.813Z,5.05
2017-12-04T00:26:19.864Z,5.03
2017-12-04T00:27:29.904Z,4.98
2017-12-04T00:28:39.953Z,5
2017-12-04T00:29:50.021Z,5.09
2017-12-04T00:31:00.170Z,5.09
2017-12-04T00:32:09.681Z,5.03
2017-12-04T00:33:21.352Z,5.08
2017-12-04T00:34:31.147Z,5.12
2017-12-04T00:35:41.210Z,5.12
2017-12-04T00:36:51.266Z,5.15
2017-12-04T00:38:01.309Z,5.09
2017-12-04T00:39:11.371Z,5.09
2017-12-04T00:40:21.415Z,5
2017-12-04T00:41:31.204Z,5.03
2017-12-04T00:42:40.776Z,5.06
2017-12-04T00:43:50.821Z,4.98
2017-12-04T00:45:00.610Z,5
2017-12-04T00:46:10.405Z,5.05
2017-12-04T00:47:19.673Z,4.98
2017-12-04T00:48:29.532Z,5.06
2017-12-04T00:49:39.601Z,4.95
2017-12-04T00:50:49.382Z,5.03
2017-12-04T00:51:59.176Z,4.95
2017-12-04T00:53:09.232Z,5.09
2017-12-04T00:54:19.340Z,5
2017-12-04T00:55:29.128Z,5.02
2017-12-04T00:56:38.641Z,4.97
2017-12-04T00:57:48.169Z,5
2017-12-04T00:58:58.210Z,4.91
2017-12-04T01:00:08.274Z,5
2017-12-04T01:01:18.062Z,5
2017-12-04T01:02:28.103Z,4.98
2017-12-04T01:03:37.886Z,4.97
2017-12-04T01:04:47.659Z,5.05
2017-12-04T01:05:57.463Z,4.97
2017-12-04T01:07:07.527Z,4.91
2017-12-04T01:08:17.309Z,5
2017-12-04T01:09:27.109Z,4.95
2017-12-04T01:10:37.148Z,4.84
2017-12-04T01:11:46.934Z,4.92
2017-12-04T01:12:56.987Z,4.97
2017-12-04T01:14:07.037Z,5
2017-12-04T01:15:17.075Z,4.79
2017-12-04T01:16:26.607Z,4.84
2017-12-04T01:17:36.754Z,4.84
2017-12-04T01:18:46.810Z,4.97
2017-12-04T01:19:56.872Z,4.94
2017-12-04T01:21:06.914Z,4.95
2017-12-04T01:22:16.701Z,5
2017-12-04T01:23:26.751Z,4.98
2017-12-04T01:24:36.268Z,4.98
2017-12-04T01:25:46.317Z,4.95
2017-12-04T01:26:56.408Z,4.98
2017-12-04T01:28:06.196Z,4.97
2017-12-04T01:29:15.985Z,4.98
2017-12-04T01:30:26.051Z,4.95
2017-12-04T01:31:36.099Z,4.98
2017-12-04T01:32:46.179Z,4.98
2017-12-04T01:33:56.213Z,5.02
2017-12-04T01:35:05.994Z,4.98
2017-12-04T01:36:16.044Z,5
2017-12-04T01:37:26.108Z,4.97
2017-12-04T01:38:35.883Z,5.03
2017-12-04T01:39:45.940Z,4.94
2017-12-04T01:40:55.837Z,5.06
2017-12-04T01:42:05.905Z,5
2017-12-04T01:43:15.970Z,4.97
2017-12-04T01:44:25.738Z,5.03
2017-12-04T01:45:35.535Z,5
2017-12-04T01:46:45.631Z,5.13
2017-12-04T01:47:55.153Z,5.06
2017-12-04T01:49:04.937Z,5.09
2017-12-04T01:50:14.973Z,5.08
2017-12-04T01:51:24.778Z,5.09
2017-12-04T01:52:34.866Z,5.15
2017-12-04T01:53:44.404Z,5.08
2017-12-04T01:54:54.460Z,5.2
2017-12-04T01:56:04.520Z,5.13
2017-12-04T01:57:14.577Z,5.21
2017-12-04T01:58:24.644Z,5.15
2017-12-04T01:59:34.433Z,5.2
2017-12-04T02:00:44.479Z,5.21
2017-12-04T02:01:54.551Z,5.31
2017-12-04T02:03:04.625Z,5.26
2017-12-04T02:04:14.424Z,5.16
2017-12-04T02:05:24.482Z,5.23
2017-12-04T02:06:34.289Z,5.33
2017-12-04T02:07:44.338Z,5.26
2017-12-04T02:08:53.606Z,5.24
2017-12-04T02:10:03.143Z,5.21
2017-12-04T02:11:12.934Z,5.15
2017-12-04T02:12:22.726Z,5.18
2017-12-04T02:13:32.499Z,5.24
2017-12-04T02:14:42.542Z,5.23
2017-12-04T02:15:52.335Z,5.24
2017-12-04T02:17:01.612Z,5.23
2017-12-04T02:18:11.653Z,5.23
2017-12-04T02:19:21.425Z,5.23
2017-12-04T02:20:31.469Z,5.3
2017-12-04T02:21:41.510Z,5.28
2017-12-04T02:22:51.547Z,5.15
2017-12-04T02:24:01.596Z,5.3
2017-12-04T02:25:11.644Z,5.26
2017-12-04T02:26:21.726Z,5.23
2017-12-04T02:27:31.504Z,5.24
2017-12-04T02:28:41.549Z,5.27
2017-12-04T02:29:52.572Z,5.3
2017-12-04T02:31:02.650Z,5.28
2017-12-04T02:32:12.440Z,5.16
2017-12-04T02:33:22.224Z,5.33
2017-12-04T02:34:32.019Z,5.3
2017-12-04T02:35:41.811Z,5.24
2017-12-04T02:36:51.875Z,5.27
2017-12-04T02:38:01.682Z,5.15
2017-12-04T02:39:11.777Z,5.23
2017-12-04T02:40:21.849Z,5.15
2017-12-04T02:41:31.915Z,5.13
2017-12-04T02:42:41.706Z,5.13
2017-12-04T02:43:51.779Z,5.18
2017-12-04T02:45:01.579Z,5.13
2017-12-04T02:46:11.632Z,5.18
2017-12-04T02:47:21.692Z,5.2
2017-12-04T02:48:31.732Z,5.16
2017-12-04T02:49:41.547Z,5.12
2017-12-04T02:50:51.351Z,5.09
2017-12-04T02:52:01.142Z,5.09
2017-12-04T02:53:10.668Z,5.12
2017-12-04T02:54:20.486Z,5.1
2017-12-04T02:55:30.541Z,5.08
2017-12-04T02:56:40.667Z,5.09
2017-12-04T02:57:50.472Z,5.15
2017-12-04T02:59:00.514Z,5.12
2017-12-04T03:00:10.561Z,5.16
2017-12-04T03:01:20.088Z,5.21
2017-12-04T03:02:30.839Z,5.2
2017-12-04T03:34:19.443Z,3.02
2017-12-04T03:35:29.491Z,3.01
2017-12-04T03:36:39.533Z,3.01
2017-12-04T03:37:49.564Z,3.02
2017-12-04T03:38:59.341Z,3.09
2017-12-04T03:40:09.174Z,3.29
2017-12-04T03:41:18.959Z,3.39
2017-12-04T03:42:28.739Z,3.54
2017-12-04T03:43:38.784Z,3.63
2017-12-04T03:44:48.320Z,3.81
2017-12-04T03:45:58.373Z,3.99
2017-12-04T03:47:07.916Z,4.12
2017-12-04T03:48:17.445Z,4.32
2017-12-04T03:49:27.497Z,4.32
2017-12-04T03:50:37.038Z,4.35
2017-12-04T03:51:46.614Z,4.57
2017-12-04T03:52:56.656Z,4.61
2017-12-04T03:54:06.190Z,4.66
2017-12-04T03:55:16.239Z,4.72
2017-12-04T03:56:26.043Z,4.78
2017-12-04T03:57:36.099Z,4.88
2017-12-04T03:58:45.877Z,4.98
2017-12-04T03:59:55.686Z,4.98
2017-12-04T04:01:05.493Z,5.1
2017-12-04T04:02:15.537Z,5.18
2017-12-04T04:03:25.121Z,5.27
2017-12-04T04:04:35.185Z,5.31
2017-12-04T04:05:44.999Z,5.33
2017-12-04T04:06:55.046Z,5.34
2017-12-04T04:08:04.830Z,5.31
2017-12-04T04:09:14.351Z,5.34
2017-12-04T04:10:24.407Z,5.41
2017-12-04T04:11:33.934Z,5.44
2017-12-04T04:12:43.467Z,5.33
2017-12-04T04:13:53.529Z,5.41
2017-12-04T04:15:03.326Z,5.37
2017-12-04T04:16:13.369Z,5.49
2017-12-04T04:17:23.155Z,5.48
2017-12-04T04:18:33.214Z,5.51
2017-12-04T04:19:43.280Z,5.51
2017-12-04T04:20:53.338Z,5.46
2017-12-04T04:22:03.122Z,5.51
2017-12-04T04:23:13.172Z,5.46
2017-12-04T04:24:22.960Z,5.51
2017-12-04T04:25:32.771Z,5.54
2017-12-04T04:26:42.593Z,5.49
2017-12-04T04:27:52.650Z,5.54
2017-12-04T04:29:02.689Z,5.49
2017-12-04T04:30:12.221Z,5.54
2017-12-04T04:31:22.277Z,5.57
2017-12-04T04:32:32.336Z,5.57
2017-12-04T04:33:42.386Z,5.48
2017-12-04T04:34:52.432Z,5.49
2017-12-04T04:36:02.235Z,5.51
2017-12-04T04:37:12.291Z,5.44
2017-12-04T04:38:22.128Z,5.42
2017-12-04T04:39:32.247Z,5.41
2017-12-04T04:40:42.287Z,5.39
2017-12-04T04:41:51.804Z,5.28
2017-12-04T04:43:01.851Z,5.3
2017-12-04T04:44:11.655Z,5.18
2017-12-04T04:45:21.691Z,5.15
2017-12-04T04:46:31.748Z,5.13
2017-12-04T04:47:41.801Z,5.1
2017-12-04T04:48:51.918Z,5.1
2017-12-04T04:50:02.080Z,5
2017-12-04T04:51:12.146Z,4.95
2017-12-04T04:52:22.190Z,5.03
2017-12-04T04:53:31.964Z,5
2017-12-04T04:54:41.757Z,4.97
2017-12-04T04:55:51.806Z,4.98
2017-12-04T04:57:01.584Z,4.95
2017-12-04T04:58:11.619Z,4.92
2017-12-04T04:59:21.398Z,4.97
2017-12-04T05:00:30.918Z,4.92
2017-12-04T05:01:40.761Z,5
2017-12-04T05:02:50.803Z,4.98
2017-12-04T05:04:00.844Z,5.05
2017-12-04T05:05:11.640Z,5
2017-12-04T05:06:21.430Z,5.03
2017-12-04T05:07:31.458Z,4.98
2017-12-04T05:08:41.631Z,4.85
2017-12-04T05:09:51.162Z,4.92
2017-12-04T05:11:01.259Z,4.92
2017-12-04T05:12:11.311Z,4.84
2017-12-04T05:13:21.403Z,4.91
2017-12-04T05:14:31.188Z,4.91
2017-12-04T05:15:40.961Z,4.79
2017-12-04T05:16:50.762Z,4.94
2017-12-04T05:18:00.814Z,4.95
2017-12-04T05:19:10.904Z,4.79
2017-12-04T05:20:20.965Z,4.85
2017-12-04T05:21:30.995Z,4.98
2017-12-04T05:22:41.046Z,5.02
2017-12-04T05:23:50.569Z,4.97
2017-12-04T05:25:00.379Z,4.87
2017-12-04T05:26:09.639Z,4.85
2017-12-04T05:27:19.683Z,4.84
2017-12-04T05:28:29.734Z,4.94
2017-12-04T05:29:39.280Z,4.85
2017-12-04T05:30:48.819Z,4.83
2017-12-04T05:31:58.628Z,4.97
2017-12-04T05:33:08.677Z,4.97
2017-12-04T05:34:18.465Z,4.98
2017-12-04T05:35:29.444Z,5
2017-12-04T05:36:39.239Z,4.98
2017-12-04T05:37:49.030Z,4.98
2017-12-04T05:38:59.061Z,5.02
2017-12-04T05:40:08.579Z,5.02
2017-12-04T05:41:18.365Z,5.09
2017-12-04T05:42:28.421Z,5.08
2017-12-04T05:43:38.589Z,5.1
2017-12-04T05:44:48.634Z,5.03
2017-12-04T05:45:58.428Z,5.18
2017-12-04T05:47:08.488Z,5.18
2017-12-04T05:48:18.535Z,5.21
2017-12-04T05:49:28.604Z,5.1
2017-12-04T05:50:38.650Z,5.1
2017-12-04T05:51:48.439Z,5.24
2017-12-04T05:52:58.225Z,5.18
2017-12-04T05:54:08.016Z,5.23
2017-12-04T05:55:17.805Z,5.27
2017-12-04T05:56:27.852Z,5.23
2017-12-04T05:57:37.639Z,5.23
2017-12-04T05:58:47.701Z,5.26
2017-12-04T05:59:57.762Z,5.28
2017-12-04T06:01:07.840Z,5.16
2017-12-04T06:02:17.891Z,5.2
2017-12-04T06:03:27.947Z,5.26
2017-12-04T06:04:38.003Z,5.33
2017-12-04T06:05:48.476Z,5.28
2017-12-04T06:06:58.280Z,5.31
2017-12-04T06:08:07.796Z,5.24
2017-12-04T06:09:17.859Z,5.28
2017-12-04T06:10:27.643Z,5.23
2017-12-04T06:11:37.490Z,5.27
2017-12-04T06:12:47.287Z,5.33
2017-12-04T06:13:57.073Z,5.34
2017-12-04T06:15:06.865Z,5.37
2017-12-04T06:16:16.397Z,5.33
2017-12-04T06:17:25.705Z,5.28
2017-12-04T06:18:35.760Z,5.41
2017-12-04T06:19:45.547Z,5.44
2017-12-04T06:20:55.084Z,5.3
2017-12-04T06:22:05.203Z,5.39
2017-12-04T06:23:14.409Z,5.41
2017-12-04T06:24:24.452Z,5.41
2017-12-04T06:25:34.241Z,5.39
2017-12-04T06:26:44.020Z,5.28
2017-12-04T06:27:54.081Z,5.34
2017-12-04T06:29:04.138Z,5.36
2017-12-04T06:30:14.198Z,5.33
2017-12-04T06:31:23.986Z,5.42
2017-12-04T06:32:33.776Z,5.44
2017-12-04T06:33:43.570Z,5.51
2017-12-04T06:34:53.099Z,5.48
2017-12-04T06:36:02.906Z,5.42
2017-12-04T06:37:12.954Z,5.42
2017-12-04T06:38:22.479Z,5.49
2017-12-04T06:39:32.533Z,5.48
2017-12-04T06:40:42.332Z,5.44
2017-12-04T06:41:52.128Z,5.48
2017-12-04T06:43:02.176Z,5.49
2017-12-04T06:44:11.985Z,5.51
2017-12-04T06:45:22.031Z,5.51
2017-12-04T06:46:31.567Z,5.57
2017-12-04T06:47:41.355Z,5.49
2017-12-04T06:48:50.885Z,5.59
2017-12-04T06:50:00.922Z,5.62
2017-12-04T06:51:10.199Z,5.59
2017-12-04T06:52:20.041Z,5.63
2017-12-04T06:53:30.087Z,5.66
2017-12-04T06:54:40.142Z,5.6
2017-12-04T06:55:49.941Z,5.69
2017-12-04T06:56:59.723Z,5.54
2017-12-04T06:58:09.533Z,5.62
2017-12-04T06:59:19.307Z,5.62
2017-12-04T07:00:28.824Z,5.52
2017-12-04T07:01:38.875Z,5.54
2017-12-04T07:02:48.929Z,5.67
2017-12-04T07:03:58.730Z,5.67
2017-12-04T07:05:08.511Z,5.69
2017-12-04T07:06:18.303Z,5.69
2017-12-04T07:07:28.860Z,5.77
2017-12-04T07:08:38.691Z,5.73
2017-12-04T07:09:48.849Z,5.73
2017-12-04T07:10:58.889Z,5.78
2017-12-04T07:12:08.687Z,5.84
2017-12-04T07:13:18.738Z,5.8
2017-12-04T07:14:28.525Z,5.98
2017-12-04T07:15:37.795Z,6.02
2017-12-04T07:16:47.864Z,6.17
2017-12-04T07:17:57.650Z,6.15
2017-12-04T07:19:07.433Z,6.31
2017-12-04T07:20:16.963Z,6.37
2017-12-04T07:21:26.804Z,6.46
2017-12-04T07:22:36.619Z,6.4
2017-12-04T07:23:46.384Z,6.57
2017-12-04T07:24:55.953Z,6.55
2017-12-04T07:26:06.022Z,6.68
2017-12-04T07:27:15.830Z,6.76
2017-12-04T07:28:25.615Z,6.82
2017-12-04T07:29:35.676Z,6.86
2017-12-04T07:30:45.498Z,6.9
2017-12-04T07:31:54.511Z,7
2017-12-04T07:33:04.556Z,6.95
2017-12-04T07:34:14.105Z,6.97
2017-12-04T07:35:23.902Z,6.98
2017-12-04T07:36:33.688Z,6.88
2017-12-04T07:37:43.816Z,7.04
2017-12-04T07:38:53.611Z,7.04
2017-12-04T07:40:03.942Z,7.01
2017-12-04T07:41:13.737Z,7
2017-12-04T07:42:23.836Z,6.98
2017-12-04T07:43:33.896Z,7.01
2017-12-04T07:44:43.684Z,6.97
2017-12-04T07:45:53.223Z,7
2017-12-04T07:47:03.267Z,7
2017-12-04T07:48:13.065Z,7.01
2017-12-04T07:49:22.841Z,6.88
2017-12-04T07:50:32.630Z,6.9
2017-12-04T07:51:42.691Z,6.9
2017-12-04T07:52:52.754Z,6.91
2017-12-04T07:54:02.617Z,7
2017-12-04T07:55:12.140Z,6.97
2017-12-04T07:56:23.183Z,6.95
2017-12-04T07:57:33.224Z,6.98
2017-12-04T07:58:43.031Z,7.08
2017-12-04T07:59:52.557Z,7.03
2017-12-04T08:01:02.595Z,7.04
2017-12-04T08:02:12.381Z,7.18
2017-12-04T08:03:22.433Z,7.19
2017-12-04T08:04:32.566Z,7.19
2017-12-04T08:05:43.262Z,7.19
2017-12-04T08:06:53.049Z,7.22
2017-12-04T08:08:03.109Z,7.21
2017-12-04T08:09:13.158Z,7.19
2017-12-04T08:10:23.210Z,7.26
2017-12-04T08:11:33.560Z,7.22
2017-12-04T08:12:43.414Z,7.19
2017-12-04T08:13:53.198Z,7.34
2017-12-04T08:15:03.255Z,7.39
2017-12-04T08:16:13.317Z,7.49
2017-12-04T08:17:23.404Z,7.49
2017-12-04T08:18:33.470Z,7.55
2017-12-04T08:19:43.532Z,7.58
2017-12-04T08:20:53.610Z,7.67
2017-12-04T08:22:03.150Z,7.68
2017-12-04T08:23:12.676Z,7.74
2017-12-04T08:24:22.507Z,7.74
2017-12-04T08:25:33.407Z,7.82
2017-12-04T08:26:43.504Z,7.86
2017-12-04T08:27:53.580Z,7.85
2017-12-04T08:29:03.695Z,7.82
2017-12-04T08:30:13.761Z,7.86
2017-12-04T08:31:23.594Z,7.86
2017-12-04T08:32:33.680Z,7.86
2017-12-04T08:33:44.642Z,7.82
2017-12-04T08:34:54.760Z,7.73
2017-12-04T08:36:04.842Z,7.82
2017-12-04T08:37:14.663Z,7.71
2017-12-04T08:38:24.721Z,7.59
2017-12-04T08:39:34.524Z,7.55
2017-12-04T08:40:44.424Z,7.54
2017-12-04T08:41:54.238Z,7.51
2017-12-04T08:43:04.042Z,7.48
2017-12-04T08:44:13.580Z,7.4
2017-12-04T08:45:23.122Z,7.47
2017-12-04T08:46:32.959Z,7.54
2017-12-04T08:47:42.759Z,7.54
2017-12-04T08:48:52.557Z,7.45
2017-12-04T08:50:02.343Z,7.48
2017-12-04T08:51:12.414Z,7.45
2017-12-04T08:52:22.210Z,7.44
2017-12-04T08:53:32.255Z,7.39
2017-12-04T08:54:42.340Z,7.33
2017-12-04T08:55:52.128Z,7.33
2017-12-04T08:57:02.175Z,7.29
2017-12-04T08:58:12.310Z,7.33
2017-12-04T08:59:22.369Z,7.27
2017-12-04T09:00:32.159Z,7.34
2017-12-04T09:01:41.711Z,7.23
2017-12-04T09:02:51.541Z,7.34
2017-12-04T09:04:01.665Z,7.39
2017-12-04T09:05:11.732Z,7.37
2017-12-04T09:06:21.794Z,7.36
2017-12-04T09:07:31.576Z,7.26
2017-12-04T09:08:41.372Z,7.26
2017-12-04T09:09:51.183Z,7.27
2017-12-04T09:11:01.961Z,7.29
2017-12-04T09:12:13.852Z,7.19
2017-12-04T09:13:23.658Z,7.22
2017-12-04T09:14:33.525Z,7.22
2017-12-04T09:15:43.412Z,7.27
2017-12-04T09:16:53.221Z,7.29
2017-12-04T09:18:03.299Z,7.3
2017-12-04T09:19:13.088Z,7.22
2017-12-04T09:20:23.159Z,7.27
2017-12-04T09:21:33.241Z,7.21
2017-12-04T09:22:43.333Z,7.36
2017-12-04T09:23:53.411Z,7.37
2017-12-04T09:25:03.816Z,7.44
2017-12-04T09:26:13.641Z,7.55
2017-12-04T09:27:23.733Z,7.54
2017-12-04T09:28:33.556Z,7.54
2017-12-04T09:29:43.622Z,7.64
2017-12-04T09:30:53.176Z,7.56
2017-12-04T09:32:02.456Z,7.59
2017-12-04T09:33:12.529Z,7.58
2017-12-04T09:34:22.599Z,7.73
2017-12-04T09:35:32.416Z,7.71
2017-12-04T09:36:42.217Z,7.86
2017-12-04T09:37:52.012Z,7.83
2017-12-04T09:39:01.857Z,7.85
2017-12-04T09:40:13.088Z,7.89
2017-12-04T09:41:23.153Z,7.91
2017-12-04T09:42:33.226Z,7.93
2017-12-04T09:43:43.037Z,7.8
2017-12-04T09:44:53.431Z,7.91
2017-12-04T09:46:02.962Z,7.91
2017-12-04T09:47:13.028Z,7.88
2017-12-04T09:48:23.088Z,7.89
2017-12-04T09:49:32.875Z,7.96
2017-12-04T09:50:42.688Z,7.91
2017-12-04T09:51:52.486Z,7.74
2017-12-04T09:53:02.556Z,7.49
2017-12-04T09:54:12.684Z,7.51
2017-12-04T09:55:22.809Z,7.34
2017-12-04T09:56:32.685Z,7.33
2017-12-04T09:57:42.495Z,7.34
2017-12-04T09:58:52.041Z,7.36
2017-12-04T10:00:01.848Z,7.39
2017-12-04T10:01:11.636Z,7.51
2017-12-04T10:02:21.275Z,7.58
2017-12-04T10:03:31.338Z,7.74
2017-12-04T10:04:41.137Z,7.88
2017-12-04T10:05:51.217Z,7.99
2017-12-04T10:07:00.485Z,8.13
2017-12-04T10:08:10.637Z,8.26
2017-12-04T10:09:21.184Z,8.35
2017-12-04T10:10:31.009Z,8.31
2017-12-04T10:11:40.518Z,8.28
2017-12-04T10:12:50.074Z,8.28
2017-12-04T10:14:00.145Z,8.28
2017-12-04T10:15:10.236Z,8.29
2017-12-04T10:16:20.024Z,8.16
2017-12-04T10:17:29.826Z,8.14
2017-12-04T10:18:39.628Z,8.14
2017-12-04T10:19:49.490Z,8.16
2017-12-04T10:20:59.285Z,8.25
2017-12-04T10:22:08.820Z,8.53
2017-12-04T10:23:18.649Z,8.76
2017-12-04T10:24:28.445Z,9.01
2017-12-04T10:25:38.291Z,9.08
2017-12-04T10:26:48.389Z,9.12
2017-12-04T10:27:57.910Z,9.21
2017-12-04T10:29:07.446Z,9.3
2017-12-04T10:30:17.503Z,9.63
2017-12-04T10:31:27.075Z,9.74
2017-12-04T10:32:37.165Z,9.59
2017-12-04T10:33:47.221Z,9.52
2017-12-04T10:34:57.295Z,9.37
2017-12-04T10:36:07.371Z,9.17
2017-12-04T10:37:17.240Z,9.12
2017-12-04T10:38:27.301Z,8.79
2017-12-04T10:39:37.377Z,8.76
2017-12-04T10:40:47.214Z,8.5
2017-12-04T10:41:57.275Z,8.47
2017-12-04T10:43:07.403Z,8.24
2017-12-04T10:44:17.216Z,8.28
2017-12-04T10:45:26.749Z,8.16
2017-12-04T10:46:36.816Z,8.13
2017-12-04T10:47:46.898Z,8.21
2017-12-04T10:48:56.757Z,8.21
2017-12-04T10:50:06.294Z,8.22
2017-12-04T10:51:16.403Z,8.09
2017-12-04T10:52:26.462Z,8.04
2017-12-04T10:53:35.745Z,8.01
2017-12-04T10:54:45.852Z,7.93
2017-12-04T10:55:55.923Z,8.07
2017-12-04T10:57:05.469Z,8.1
2017-12-04T10:58:15.273Z,8.21
2017-12-04T10:59:25.340Z,8.21
2017-12-04T11:00:35.150Z,8.26
2017-12-04T11:01:45.462Z,8.32
2017-12-04T11:02:56.086Z,8.43
2017-12-04T11:04:06.146Z,8.46
2017-12-04T11:05:16.212Z,8.52
2017-12-04T11:06:25.764Z,8.43
2017-12-04T11:07:35.817Z,8.52
2017-12-04T11:08:45.893Z,8.58
2017-12-04T11:09:55.427Z,8.6
2017-12-04T11:11:05.522Z,8.67
2017-12-04T11:12:15.329Z,8.71
2017-12-04T11:13:24.885Z,8.82
2017-12-04T11:14:34.990Z,8.82
2017-12-04T11:15:44.803Z,8.82
2017-12-04T11:16:54.598Z,8.82
2017-12-04T11:18:04.129Z,8.79
2017-12-04T11:19:13.946Z,8.79
2017-12-04T11:20:23.771Z,8.8
2017-12-04T11:21:34.434Z,8.83
2017-12-04T11:22:44.283Z,8.82
2017-12-04T11:23:54.352Z,8.74
2017-12-04T11:25:04.161Z,9
2017-12-04T11:26:14.227Z,9.05
2017-12-04T11:27:24.034Z,9.19
2017-12-04T11:28:33.888Z,9.19
2017-12-04T11:29:43.945Z,9.3
2017-12-04T11:30:53.760Z,9.38
2017-12-04T11:32:03.832Z,9.39
2017-12-04T11:33:13.635Z,9.41
2017-12-04T11:34:23.450Z,9.39
2017-12-04T11:35:33.527Z,9.41
2017-12-04T11:36:43.342Z,9.38
2017-12-04T11:37:54.527Z,9.37
2017-12-04T11:39:04.613Z,9.34
2017-12-04T11:40:14.419Z,9.32
2017-12-04T11:41:24.491Z,9.2
2017-12-04T11:42:34.284Z,9.26
2017-12-04T11:43:44.330Z,9.23
2017-12-04T11:44:54.419Z,9.24
2017-12-04T11:46:04.267Z,9.29
2017-12-04T11:47:14.089Z,9.38
2017-12-04T11:48:23.614Z,9.35
2017-12-04T11:49:33.440Z,9.44
2017-12-04T11:50:44.598Z,9.39
2017-12-04T11:51:54.715Z,9.45
2017-12-04T11:53:05.795Z,9.38
2017-12-04T11:54:15.866Z,9.45
2017-12-04T11:55:25.939Z,9.38
2017-12-04T11:56:35.742Z,9.34
2017-12-04T11:57:45.855Z,9.29
2017-12-04T11:58:55.667Z,9.26
2017-12-04T12:00:05.473Z,9.21
2017-12-04T12:01:15.554Z,9.11
2017-12-04T12:02:25.619Z,9.04
2017-12-04T12:03:35.842Z,9.08
2017-12-04T12:04:45.953Z,9.03
2017-12-04T12:05:56.008Z,8.98
2017-12-04T12:07:05.316Z,9.08
2017-12-04T12:08:15.376Z,9.04
2017-12-04T12:09:25.447Z,9.09
2017-12-04T12:10:35.524Z,9.08
2017-12-04T12:11:45.325Z,9.12
2017-12-04T12:12:55.141Z,8.97
2017-12-04T12:14:05.215Z,9.05
2017-12-04T12:15:15.317Z,9.04
2017-12-04T12:16:24.875Z,8.92
2017-12-04T12:17:34.945Z,8.9
2017-12-04T12:18:45.014Z,9.03
2017-12-04T12:19:55.079Z,8.97
2017-12-04T12:21:04.923Z,8.82
2017-12-04T12:22:14.741Z,8.69
2017-12-04T12:23:24.577Z,8.77
2017-12-04T12:24:34.711Z,8.76
2017-12-04T12:25:44.783Z,8.62
2017-12-04T12:26:54.889Z,8.6
2017-12-04T12:28:04.936Z,8.46
2017-12-04T12:29:14.739Z,8.47
2017-12-04T12:30:24.257Z,8.49
2017-12-04T12:31:33.532Z,8.36
2017-12-04T12:32:43.685Z,8.36
2017-12-04T12:33:53.754Z,8.47
2017-12-04T12:35:03.832Z,8.36
2017-12-04T12:36:13.961Z,8.29
2017-12-04T12:37:24.048Z,8.24
2017-12-04T12:38:34.159Z,8.31
2017-12-04T12:39:44.230Z,8.24
2017-12-04T12:40:53.756Z,8.21
2017-12-04T12:42:03.842Z,8.17
2017-12-04T12:43:13.627Z,8.13
2017-12-04T12:44:23.494Z,8.22
2017-12-04T12:45:33.362Z,8.16
2017-12-04T12:46:43.502Z,8.21
2017-12-04T12:47:53.302Z,8.29
2017-12-04T12:49:02.841Z,8.25
2017-12-04T12:50:12.902Z,8.26
2017-12-04T12:51:22.448Z,8.35
2017-12-04T12:52:32.509Z,8.42
2017-12-04T12:53:42.312Z,8.42
2017-12-04T12:54:52.421Z,8.25
2017-12-04T12:56:02.200Z,8.31
2017-12-04T12:57:11.775Z,8.17
2017-12-04T12:58:21.577Z,8.16
2017-12-04T12:59:32.738Z,8.11
2017-12-04T13:00:42.808Z,8.07
2017-12-04T13:01:52.609Z,8.16
2017-12-04T13:03:02.432Z,8.21
2017-12-04T13:04:12.262Z,8.14
2017-12-04T13:05:22.337Z,8.24
2017-12-04T13:06:32.417Z,8.11
2017-12-04T13:07:42.528Z,8.16
2017-12-04T13:08:52.343Z,8.14
2017-12-04T13:10:02.172Z,8.1
2017-12-04T13:11:12.256Z,8.26
2017-12-04T13:12:22.056Z,8.28
2017-12-04T13:13:32.111Z,8.31
2017-12-04T13:14:41.906Z,8.43
2017-12-04T13:15:51.739Z,8.43
2017-12-04T13:17:01.544Z,8.31
2017-12-04T13:18:11.602Z,8.22
2017-12-04T13:19:21.667Z,8.32
2017-12-04T13:20:30.976Z,8.29
2017-12-04T13:21:40.234Z,8.24
2017-12-04T13:22:50.070Z,8.21
2017-12-04T13:24:00.145Z,8.19
2017-12-04T13:25:10.265Z,8.17
2017-12-04T13:26:20.342Z,8.25
2017-12-04T13:27:32.427Z,8.11
2017-12-04T13:28:42.501Z,8.06
2017-12-04T13:29:52.570Z,7.95
2017-12-04T13:31:02.709Z,7.88
2017-12-04T13:32:12.769Z,7.82
2017-12-04T13:33:22.844Z,7.7
2017-12-04T13:34:32.891Z,7.58
2017-12-04T13:35:42.687Z,7.48
2017-12-04T13:36:52.812Z,7.45
2017-12-04T13:38:03.932Z,7.23
2017-12-04T13:39:13.212Z,7.04
2017-12-04T13:40:23.030Z,6.97
2017-12-04T13:41:32.323Z,6.83
2017-12-04T13:42:42.939Z,6.68
2017-12-04T13:43:53.006Z,6.61
2017-12-04T13:45:03.077Z,6.55
2017-12-04T13:46:13.128Z,6.46
2017-12-04T13:47:22.724Z,6.47
2017-12-04T13:48:32.760Z,6.54
2017-12-04T13:49:42.289Z,6.44
2017-12-04T13:50:52.102Z,6.42
2017-12-04T13:52:02.220Z,6.46
2017-12-04T13:53:12.283Z,6.52
2017-12-04T13:54:22.338Z,6.54
2017-12-04T13:55:32.399Z,6.49
2017-12-04T13:56:42.458Z,6.52
2017-12-04T13:57:52.240Z,6.51
2017-12-04T13:59:02.053Z,6.46
2017-12-04T14:00:11.845Z,6.44
2017-12-04T14:01:21.643Z,6.39
2017-12-04T14:02:31.511Z,6.39
2017-12-04T14:03:41.589Z,6.52
2017-12-04T14:04:51.696Z,6.49
2017-12-04T14:06:01.813Z,6.49
2017-12-04T14:07:11.899Z,6.43
2017-12-04T14:08:22.009Z,6.52
2017-12-04T14:09:31.568Z,6.47
2017-12-04T14:10:41.624Z,6.37
2017-12-04T14:11:51.686Z,6.49
2017-12-04T14:13:01.775Z,6.43
2017-12-04T14:14:11.852Z,6.39
2017-12-04T14:15:22.122Z,6.4
2017-12-04T14:16:32.176Z,6.37
2017-12-04T14:17:42.302Z,6.39
2017-12-04T14:18:52.478Z,6.36
2017-12-04T14:20:02.258Z,6.34
2017-12-04T14:21:12.322Z,6.46
2017-12-04T14:22:21.857Z,6.33
2017-12-04T14:23:31.950Z,6.49
2017-12-04T14:24:42.021Z,6.44
2017-12-04T14:25:51.556Z,6.49
2017-12-04T14:27:01.393Z,6.47
2017-12-04T14:28:11.462Z,6.54
2017-12-04T14:29:21.361Z,6.55
2017-12-04T14:30:31.180Z,6.57
2017-12-04T14:31:40.728Z,6.6
2017-12-04T14:32:50.800Z,6.61
2017-12-04T14:34:00.608Z,6.58
2017-12-04T14:35:10.401Z,6.58
2017-12-04T14:36:20.482Z,6.6
2017-12-04T14:37:30.043Z,6.51
2017-12-04T14:38:39.837Z,6.55
2017-12-04T14:39:49.914Z,6.64
2017-12-04T14:41:00.039Z,6.6
2017-12-04T14:42:09.853Z,6.61
2017-12-04T14:43:19.640Z,6.55
2017-12-04T14:44:29.712Z,6.61
2017-12-04T14:45:39.518Z,6.51
2017-12-04T14:46:49.582Z,6.65
2017-12-04T14:47:59.698Z,6.7
2017-12-04T14:49:09.499Z,6.7
2017-12-04T14:50:19.038Z,6.72
2017-12-04T14:51:30.463Z,6.7
2017-12-04T14:52:40.527Z,6.67
2017-12-04T14:53:49.829Z,6.73
2017-12-04T14:54:59.673Z,6.72
2017-12-04T14:56:09.458Z,6.8
2017-12-04T14:57:19.270Z,6.82
2017-12-04T14:58:29.395Z,6.83
2017-12-04T14:59:40.288Z,6.79
2017-12-04T15:00:50.096Z,6.76
2017-12-04T15:01:59.970Z,6.82
2017-12-04T15:03:09.789Z,6.82
2017-12-04T15:04:19.854Z,6.8
2017-12-04T15:05:29.667Z,6.82
2017-12-04T15:06:39.481Z,6.78
2017-12-04T15:07:49.600Z,6.76
2017-12-04T15:08:59.158Z,6.8
2017-12-04T15:10:08.716Z,6.82
2017-12-04T15:11:18.272Z,6.8
2017-12-04T15:12:28.331Z,6.8
2017-12-04T15:13:38.468Z,6.8
2017-12-04T15:14:48.547Z,6.76
2017-12-04T15:15:58.633Z,6.75
2017-12-04T15:17:08.440Z,6.83
2017-12-04T15:18:18.248Z,6.75
2017-12-04T15:19:28.365Z,6.65
2017-12-04T15:20:38.443Z,6.68
2017-12-04T15:21:48.536Z,6.65
2017-12-04T15:22:58.339Z,6.68
2017-12-04T15:24:07.911Z,6.7
2017-12-04T15:25:18.026Z,6.64
2017-12-04T15:26:28.098Z,6.65
2017-12-04T15:27:37.905Z,6.51
2017-12-04T15:28:48.071Z,6.58
2017-12-04T15:29:57.863Z,6.6
2017-12-04T15:31:08.015Z,6.58
2017-12-04T15:32:32.490Z,6.52
2017-12-04T15:33:42.541Z,6.52
2017-12-04T15:34:52.341Z,6.58
2017-12-04T15:36:02.424Z,6.49
2017-12-04T15:37:12.237Z,6.44
2017-12-04T15:38:22.378Z,6.44
2017-12-04T15:39:32.457Z,6.43
2017-12-04T15:40:42.003Z,6.47
2017-12-04T15:41:51.825Z,6.46
2017-12-04T15:43:01.670Z,6.43
2017-12-04T15:44:19.861Z,6.44
2017-12-04T15:45:29.708Z,6.44
2017-12-04T15:46:39.895Z,6.49
2017-12-04T15:47:50.057Z,6.51
2017-12-04T15:49:00.374Z,6.4
2017-12-04T15:50:10.194Z,6.44
2017-12-04T15:51:20.134Z,6.44
2017-12-04T15:52:30.219Z,6.54
2017-12-04T15:53:40.060Z,6.55
2017-12-04T15:54:49.934Z,6.52
2017-12-04T15:56:00.129Z,6.55
2017-12-04T15:57:10.217Z,6.62
2017-12-04T15:58:20.314Z,6.67
2017-12-04T15:59:29.603Z,6.7
2017-12-04T16:00:39.173Z,6.76
2017-12-04T16:01:49.029Z,6.76
2017-12-04T16:02:59.115Z,6.82
2017-12-04T16:04:09.187Z,6.8
2017-12-04T16:05:19.256Z,6.9
2017-12-04T16:06:29.080Z,6.88
2017-12-04T16:07:38.934Z,6.93